Time;durP1;ratioP1;P1;durP2;ratioP2;P2;SDS_P1;SDS_P2;PMS_P1;PMS_P2;Temp;Humidity;BMP_temperature;BMP_pressure;BME280_temperature;BME280_humidity;BME280_pressure;Samples;Min_cycle;Max_cycle;Signal;HPM_P1;HPM_P2
2020/12/28 00:00:35;;;;;;;8.35;5.63;;;4.70;99.90;;;;;;5024633;28;20029;-75
2020/12/28 00:03:01;;;;;;;9.45;6.10;;;4.70;99.90;;;;;;5055875;28;20026;-75
2020/12/28 00:05:30;;;;;;;8.38;5.70;;;4.70;99.90;;;;;;5024041;28;20052;-76
2020/12/28 00:07:57;;;;;;;6.93;4.63;;;4.80;99.90;;;;;;5025040;28;20033;-75
2020/12/28 00:10:26;;;;;;;7.88;4.88;;;4.80;99.90;;;;;;5057730;28;20025;-75
2020/12/28 00:12:52;;;;;;;6.80;4.43;;;4.90;99.90;;;;;;5023890;28;20136;-75
2020/12/28 00:15:22;;;;;;;6.57;4.38;;;4.90;99.90;;;;;;5025721;28;20022;-76
2020/12/28 00:17:52;;;;;;;5.93;3.97;;;4.90;99.90;;;;;;5024171;28;20062;-76
2020/12/28 00:20:20;;;;;;;7.15;4.53;;;4.90;99.90;;;;;;5042548;28;20029;-76
2020/12/28 00:22:48;;;;;;;6.35;4.75;;;5.00;99.90;;;;;;5040529;28;20039;-76
2020/12/28 00:25:16;;;;;;;8.55;4.47;;;4.90;99.90;;;;;;5024935;28;20033;-76
2020/12/28 00:27:44;;;;;;;7.32;4.97;;;5.00;99.90;;;;;;5023117;28;20116;-75
2020/12/28 00:30:12;;;;;;;6.95;5.03;;;5.00;99.90;;;;;;5024232;28;20088;-75
2020/12/28 00:32:38;;;;;;;7.50;4.45;;;5.00;99.90;;;;;;5024502;28;20099;-75
2020/12/28 00:35:04;;;;;;;9.93;6.25;;;5.00;99.90;;;;;;5004269;28;20033;-76
2020/12/28 00:37:30;;;;;;;7.80;5.10;;;5.00;99.90;;;;;;5024566;28;20025;-75
2020/12/28 00:39:58;;;;;;;7.03;4.55;;;4.90;99.90;;;;;;5024078;28;20030;-76
2020/12/28 00:42:26;;;;;;;6.68;4.88;;;5.00;99.90;;;;;;5038840;28;20030;-76
2020/12/28 00:44:51;;;;;;;7.05;4.85;;;4.90;99.90;;;;;;5039338;28;20410;-76
2020/12/28 00:47:19;;;;;;;7.20;4.72;;;5.00;99.90;;;;;;5025493;28;20026;-76
2020/12/28 00:49:45;;;;;;;9.32;5.93;;;5.00;99.90;;;;;;4706294;28;9999839;-75
2020/12/28 00:52:13;;;;;;;9.38;6.25;;;4.90;99.90;;;;;;5022055;28;20486;-76
2020/12/28 00:54:43;;;;;;;7.55;5.18;;;4.90;99.90;;;;;;5025517;28;20036;-77
2020/12/28 00:57:13;;;;;;;8.32;5.53;;;5.00;99.90;;;;;;5023518;28;20513;-76
2020/12/28 00:59:39;;;;;;;7.00;4.82;;;5.00;99.90;;;;;;5023681;28;20067;-76
2020/12/28 01:02:07;;;;;;;7.82;4.80;;;4.90;99.90;;;;;;5023711;28;20704;-76
2020/12/28 01:04:35;;;;;;;7.13;4.68;;;4.90;99.90;;;;;;5023963;28;20044;-76
2020/12/28 01:07:00;;;;;;;6.60;4.38;;;5.00;99.90;;;;;;5036558;28;20029;-75
2020/12/28 01:09:28;;;;;;;5.75;4.00;;;5.00;99.90;;;;;;5054567;28;20041;-76
2020/12/28 01:11:58;;;;;;;6.97;4.35;;;5.00;99.90;;;;;;5039179;28;20045;-75
2020/12/28 01:14:27;;;;;;;6.47;4.60;;;5.10;99.90;;;;;;5055623;28;20036;-76
2020/12/28 01:16:52;;;;;;;6.50;4.68;;;5.10;99.90;;;;;;5023711;28;20026;-76
2020/12/28 01:19:20;;;;;;;7.68;4.78;;;5.10;99.90;;;;;;5027247;28;20171;-76
2020/12/28 01:21:48;;;;;;;6.60;4.18;;;5.10;99.90;;;;;;5027675;28;20022;-76
2020/12/28 01:24:14;;;;;;;6.80;4.20;;;5.00;99.90;;;;;;5028531;28;20048;-76
2020/12/28 01:26:43;;;;;;;6.25;4.03;;;5.00;99.90;;;;;;5039826;28;20026;-76
2020/12/28 01:29:10;;;;;;;6.55;4.00;;;5.00;99.90;;;;;;5026512;28;20104;-76
2020/12/28 01:31:38;;;;;;;5.20;3.30;;;5.00;99.90;;;;;;5025425;28;20535;-76
2020/12/28 01:34:03;;;;;;;5.07;3.47;;;5.10;99.90;;;;;;5028775;28;20021;-76
2020/12/28 01:36:31;;;;;;;5.78;3.78;;;5.10;99.90;;;;;;5028846;28;20083;-76
2020/12/28 01:38:57;;;;;;;5.40;3.55;;;5.00;99.90;;;;;;5027725;28;20059;-77
2020/12/28 01:41:25;;;;;;;7.03;4.13;;;5.00;99.90;;;;;;5060048;28;20901;-76
2020/12/28 01:43:50;;;;;;;5.03;3.15;;;5.00;99.90;;;;;;5026303;28;20176;-76
2020/12/28 01:46:18;;;;;;;4.85;2.92;;;4.90;99.90;;;;;;5027631;28;20573;-76
2020/12/28 01:48:44;;;;;;;5.90;3.58;;;4.90;99.90;;;;;;5025231;28;20169;-76
2020/12/28 01:51:12;;;;;;;5.72;3.70;;;5.00;99.90;;;;;;5040080;28;20397;-76
2020/12/28 01:53:38;;;;;;;7.35;3.40;;;5.00;99.90;;;;;;5025893;28;20022;-76
2020/12/28 01:56:11;;;;;;;4.57;2.97;;;5.00;99.90;;;;;;5059512;28;20029;-76
2020/12/28 01:58:37;;;;;;;5.53;3.38;;;5.00;99.90;;;;;;5026212;28;20466;-76
2020/12/28 02:01:05;;;;;;;6.50;3.72;;;5.00;99.90;;;;;;5026110;28;20057;-76
2020/12/28 02:03:35;;;;;;;5.60;3.40;;;5.00;99.90;;;;;;5026588;28;20422;-76
2020/12/28 02:06:05;;;;;;;6.65;3.90;;;5.00;99.90;;;;;;5025589;28;20033;-76
2020/12/28 02:08:36;;;;;;;6.18;3.25;;;5.00;99.90;;;;;;5058033;28;20107;-76
2020/12/28 02:11:06;;;;;;;5.03;3.00;;;5.00;99.90;;;;;;5027073;28;20033;-76
2020/12/28 02:13:37;;;;;;;5.60;3.70;;;5.10;99.90;;;;;;5023595;28;20049;-77
2020/12/28 02:16:04;;;;;;;5.68;3.75;;;5.00;99.90;;;;;;5025538;28;20076;-76
2020/12/28 02:18:32;;;;;;;6.35;3.40;;;5.00;99.90;;;;;;5056797;28;20076;-76
2020/12/28 02:21:03;;;;;;;4.25;2.78;;;5.00;99.90;;;;;;5058819;28;20096;-76
2020/12/28 02:23:33;;;;;;;4.50;2.70;;;5.10;99.90;;;;;;5025574;28;20044;-76
2020/12/28 02:26:01;;;;;;;4.53;3.00;;;5.10;99.90;;;;;;5025314;28;20068;-76
2020/12/28 02:28:31;;;;;;;4.43;2.90;;;5.10;99.90;;;;;;5027524;28;20068;-76
2020/12/28 02:30:57;;;;;;;4.55;2.67;;;5.10;99.90;;;;;;5026505;28;20036;-76
2020/12/28 02:33:23;;;;;;;4.55;2.58;;;5.10;99.90;;;;;;5016275;28;20765;-76
2020/12/28 02:35:50;;;;;;;4.53;2.67;;;5.20;99.90;;;;;;5040555;28;20088;-76
2020/12/28 02:38:18;;;;;;;4.80;2.40;;;5.10;99.90;;;;;;5026014;28;20061;-76
2020/12/28 02:40:46;;;;;;;4.32;2.70;;;5.10;99.90;;;;;;5057835;28;20043;-76
2020/12/28 02:43:12;;;;;;;4.38;2.55;;;5.00;99.90;;;;;;5026363;28;20382;-76
2020/12/28 02:45:37;;;;;;;4.32;2.70;;;5.00;99.90;;;;;;5016236;28;20052;-76
2020/12/28 02:48:06;;;;;;;4.82;3.10;;;5.00;99.90;;;;;;5013427;28;20153;-76
2020/12/28 02:50:34;;;;;;;4.97;2.70;;;5.00;99.90;;;;;;5044726;28;20509;-76
2020/12/28 02:53:07;;;;;;;4.93;2.70;;;5.00;99.90;;;;;;5043843;28;20045;-76
2020/12/28 02:55:37;;;;;;;4.07;2.60;;;5.00;99.90;;;;;;5044120;28;20026;-76
2020/12/28 02:58:05;;;;;;;3.97;2.47;;;4.90;99.90;;;;;;5031560;28;20535;-76
2020/12/28 03:00:33;;;;;;;4.65;2.60;;;5.00;99.90;;;;;;5012101;28;20601;-76
2020/12/28 03:02:58;;;;;;;4.45;2.70;;;5.00;99.90;;;;;;5013550;28;20033;-76
2020/12/28 03:05:24;;;;;;;5.20;3.25;;;5.10;99.90;;;;;;5015016;28;20038;-76
2020/12/28 03:07:50;;;;;;;5.05;2.83;;;5.00;99.90;;;;;;5024662;28;20037;-76
2020/12/28 03:10:15;;;;;;;4.60;3.05;;;5.00;99.90;;;;;;5022512;28;20128;-76
2020/12/28 03:12:41;;;;;;;4.95;3.30;;;5.00;99.90;;;;;;5012463;28;20081;-76
2020/12/28 03:15:07;;;;;;;5.10;3.47;;;5.00;99.90;;;;;;5027897;28;20424;-76
2020/12/28 03:17:32;;;;;;;4.70;3.08;;;5.00;99.90;;;;;;5045218;28;20033;-70
2020/12/28 03:20:00;;;;;;;5.07;3.53;;;5.00;99.90;;;;;;4676563;28;9999825;-69
2020/12/28 03:22:26;;;;;;;5.88;4.00;;;4.90;99.90;;;;;;5027079;28;20241;-70
2020/12/28 03:24:56;;;;;;;5.05;3.58;;;4.90;99.90;;;;;;5039190;28;20470;-70
2020/12/28 03:27:22;;;;;;;4.60;3.00;;;5.00;99.90;;;;;;5028490;28;20088;-70
2020/12/28 03:29:48;;;;;;;4.70;3.33;;;5.00;99.90;;;;;;5030364;28;20017;-70
2020/12/28 03:32:13;;;;;;;4.65;3.30;;;5.00;99.90;;;;;;5029332;28;20120;-70
2020/12/28 03:34:41;;;;;;;5.03;3.40;;;5.00;99.90;;;;;;5015229;28;20627;-70
2020/12/28 03:37:09;;;;;;;4.13;2.60;;;5.00;99.90;;;;;;5021087;28;20033;-69
2020/12/28 03:39:35;;;;;;;4.50;2.95;;;5.00;99.90;;;;;;5028047;28;20036;-70
2020/12/28 03:42:02;;;;;;;5.53;3.45;;;5.00;99.90;;;;;;5030586;28;20025;-70
2020/12/28 03:44:28;;;;;;;6.38;3.60;;;5.00;99.90;;;;;;5047863;28;20122;-69
2020/12/28 03:46:54;;;;;;;5.28;3.30;;;5.00;99.90;;;;;;5016534;28;20126;-69
2020/12/28 03:49:19;;;;;;;4.65;3.15;;;5.00;99.90;;;;;;5015922;28;20052;-69
2020/12/28 03:51:48;;;;;;;4.60;2.70;;;5.00;99.90;;;;;;5031434;28;20121;-70
2020/12/28 03:54:13;;;;;;;5.25;3.30;;;5.00;99.90;;;;;;5026419;28;20443;-69
2020/12/28 03:56:41;;;;;;;4.63;2.83;;;4.90;99.90;;;;;;5044384;28;20036;-70
2020/12/28 03:59:09;;;;;;;4.97;3.20;;;5.00;99.90;;;;;;5017195;28;20079;-70
2020/12/28 04:01:34;;;;;;;4.20;2.70;;;5.00;99.90;;;;;;5025204;28;20029;-70
2020/12/28 04:04:00;;;;;;;4.90;2.90;;;5.00;99.90;;;;;;5029568;28;20021;-70
2020/12/28 04:06:30;;;;;;;3.63;2.38;;;5.00;99.90;;;;;;5034009;28;20025;-69
2020/12/28 04:08:58;;;;;;;3.67;2.30;;;5.00;99.90;;;;;;5016577;28;21883;-69
2020/12/28 04:11:24;;;;;;;3.80;2.33;;;5.00;99.90;;;;;;5048356;28;20038;-69
2020/12/28 04:13:50;;;;;;;4.50;2.30;;;5.00;99.90;;;;;;5015094;28;20053;-70
2020/12/28 04:16:15;;;;;;;4.43;2.55;;;5.10;99.90;;;;;;5048579;28;20045;-69
2020/12/28 04:18:41;;;;;;;4.07;2.22;;;5.10;99.90;;;;;;5015929;28;20660;-69
2020/12/28 04:21:07;;;;;;;3.10;1.80;;;5.10;99.90;;;;;;5030476;28;20033;-69
2020/12/28 04:23:33;;;;;;;4.05;2.20;;;5.10;99.90;;;;;;5031724;28;20068;-70
2020/12/28 04:25:58;;;;;;;3.45;2.10;;;5.10;99.90;;;;;;5028346;28;20417;-70
2020/12/28 04:28:24;;;;;;;3.95;2.08;;;5.10;99.90;;;;;;5029389;28;20187;-70
2020/12/28 04:30:50;;;;;;;3.53;2.35;;;5.10;99.90;;;;;;5038345;28;20040;-70
2020/12/28 04:33:18;;;;;;;3.97;2.30;;;5.10;99.90;;;;;;5047121;28;20477;-69
2020/12/28 04:35:43;;;;;;;3.33;2.03;;;5.00;99.90;;;;;;5014526;28;20123;-69
2020/12/28 04:38:09;;;;;;;3.75;2.38;;;5.00;99.90;;;;;;5014797;28;20128;-69
2020/12/28 04:40:38;;;;;;;3.63;2.20;;;5.00;99.90;;;;;;5014519;28;20080;-70
2020/12/28 04:43:03;;;;;;;3.40;2.13;;;5.00;99.90;;;;;;5030685;28;20735;-69
2020/12/28 04:45:29;;;;;;;3.45;1.90;;;5.00;99.90;;;;;;5052897;28;20068;-69
2020/12/28 04:47:59;;;;;;;3.47;2.10;;;5.00;99.90;;;;;;5044514;28;20480;-70
2020/12/28 04:50:25;;;;;;;3.80;2.25;;;5.00;99.90;;;;;;5054464;28;20041;-70
2020/12/28 04:52:50;;;;;;;4.03;1.90;;;5.10;99.90;;;;;;5025698;28;20025;-70
2020/12/28 04:55:17;;;;;;;3.50;2.10;;;5.10;99.90;;;;;;5022222;28;20030;-69
2020/12/28 04:57:44;;;;;;;3.65;2.13;;;5.10;99.90;;;;;;5018589;28;20032;-70
2020/12/28 05:00:10;;;;;;;3.28;2.10;;;5.10;99.90;;;;;;5014540;28;20510;-69
2020/12/28 05:02:39;;;;;;;3.45;2.00;;;5.10;99.90;;;;;;5013740;28;20044;-69
2020/12/28 05:05:10;;;;;;;3.03;1.85;;;5.10;99.90;;;;;;5015328;28;20060;-69
2020/12/28 05:07:36;;;;;;;2.72;1.80;;;5.10;99.90;;;;;;5016742;28;20029;-70
2020/12/28 05:10:04;;;;;;;3.40;1.95;;;5.10;99.90;;;;;;5046449;28;20029;-69
2020/12/28 05:12:32;;;;;;;2.95;1.80;;;5.10;99.90;;;;;;5014346;28;20048;-69
2020/12/28 05:15:08;;;;;;;3.97;2.20;;;5.20;99.90;;;;;;5046624;28;21883;-69
2020/12/28 05:17:33;;;;;;;3.53;1.85;;;5.20;99.90;;;;;;5029965;28;20091;-69
2020/12/28 05:20:00;;;;;;;3.55;2.00;;;5.20;99.90;;;;;;5047548;28;20065;-70
2020/12/28 05:22:30;;;;;;;3.67;2.00;;;5.20;99.90;;;;;;5060473;28;20025;-70
2020/12/28 05:24:56;;;;;;;3.47;2.10;;;5.20;99.90;;;;;;5022889;28;20025;-69
2020/12/28 05:27:24;;;;;;;3.35;2.00;;;5.20;99.90;;;;;;5015981;28;20099;-70
2020/12/28 05:29:52;;;;;;;4.25;2.33;;;5.10;99.90;;;;;;5046563;28;20124;-69
2020/12/28 05:32:21;;;;;;;3.50;2.13;;;5.20;99.90;;;;;;5017017;28;20034;-70
2020/12/28 05:34:46;;;;;;;3.72;2.22;;;5.20;99.90;;;;;;5046086;28;21922;-70
2020/12/28 05:37:13;;;;;;;3.35;1.95;;;5.20;99.90;;;;;;5037381;28;20026;-69
2020/12/28 05:39:40;;;;;;;3.50;2.22;;;5.20;99.90;;;;;;5028172;28;20196;-70
2020/12/28 05:42:12;;;;;;;3.90;2.40;;;5.20;99.90;;;;;;5016536;28;20036;-69
2020/12/28 05:44:39;;;;;;;3.65;2.00;;;5.20;99.90;;;;;;5015218;28;20075;-70
2020/12/28 05:47:12;;;;;;;4.07;2.50;;;5.20;99.90;;;;;;5014129;28;20059;-69
2020/12/28 05:49:42;;;;;;;5.07;2.70;;;5.20;99.90;;;;;;5031025;28;20040;-70
2020/12/28 05:52:09;;;;;;;5.00;2.60;;;5.20;99.90;;;;;;5039807;28;20033;-70
2020/12/28 05:54:36;;;;;;;5.15;3.25;;;5.20;99.90;;;;;;5052566;28;20033;-70
2020/12/28 05:57:06;;;;;;;5.15;2.72;;;5.20;99.90;;;;;;5013902;28;21883;-70
2020/12/28 05:59:34;;;;;;;4.85;3.08;;;5.20;99.90;;;;;;5014206;28;20037;-70
2020/12/28 06:02:03;;;;;;;5.90;3.90;;;5.20;99.90;;;;;;5013451;28;20094;-69
2020/12/28 06:04:28;;;;;;;5.50;3.70;;;5.10;99.90;;;;;;5014304;28;20057;-69
2020/12/28 06:07:04;;;;;;;5.18;3.20;;;5.20;99.90;;;;;;5016428;28;20034;-70
2020/12/28 06:09:30;;;;;;;5.43;3.20;;;5.20;99.90;;;;;;5033397;28;20033;-69
2020/12/28 06:12:06;;;;;;;6.60;3.72;;;5.20;99.90;;;;;;5044987;28;20048;-69
2020/12/28 06:14:39;;;;;;;6.28;3.92;;;5.20;99.90;;;;;;5032298;28;20076;-70
2020/12/28 06:17:10;;;;;;;5.65;3.97;;;5.20;99.90;;;;;;5041364;28;20391;-70
2020/12/28 06:19:39;;;;;;;4.13;2.92;;;5.20;99.90;;;;;;5026051;28;20022;-70
2020/12/28 06:22:20;;;;;;;6.82;4.32;;;5.20;99.90;;;;;;5013534;28;20038;-69
2020/12/28 06:25:07;;;;;;;6.55;4.00;;;5.20;99.90;;;;;;5029644;28;20164;-69
2020/12/28 06:27:39;;;;;;;5.72;3.80;;;5.20;99.90;;;;;;5040971;28;20025;-70
2020/12/28 06:30:23;;;;;;;6.95;4.78;;;5.20;99.90;;;;;;5051606;28;20107;-70
2020/12/28 06:32:50;;;;;;;6.85;4.70;;;5.20;99.90;;;;;;5031043;28;20038;-69
2020/12/28 06:35:19;;;;;;;6.65;4.80;;;5.20;99.90;;;;;;5026440;28;20013;-70
2020/12/28 06:37:53;;;;;;;9.32;4.82;;;5.20;99.90;;;;;;5021969;28;20357;-69
2020/12/28 06:40:33;;;;;;;6.70;4.60;;;5.10;99.90;;;;;;5043791;28;20026;-69
2020/12/28 06:43:12;;;;;;;7.25;4.38;;;5.10;99.90;;;;;;5013504;28;20029;-69
2020/12/28 06:45:42;;;;;;;7.15;4.60;;;5.10;99.90;;;;;;5043717;28;20030;-69
2020/12/28 06:48:24;;;;;;;6.18;4.20;;;5.10;99.90;;;;;;5013068;28;20049;-70
2020/12/28 06:50:52;;;;;;;6.10;3.73;;;5.10;99.90;;;;;;5026540;28;20040;-70
2020/12/28 06:53:22;;;;;;;5.80;4.13;;;5.10;99.90;;;;;;5014525;28;20140;-69
2020/12/28 06:55:48;;;;;;;5.53;3.85;;;5.20;99.90;;;;;;5032667;28;20038;-69
2020/12/28 06:58:14;;;;;;;5.85;3.60;;;5.20;99.90;;;;;;5045497;28;20029;-69
2020/12/28 07:00:39;;;;;;;6.57;4.07;;;5.10;99.90;;;;;;5034074;28;20093;-70
2020/12/28 07:03:14;;;;;;;5.88;3.65;;;5.10;99.90;;;;;;5026512;28;20056;-70
2020/12/28 07:05:45;;;;;;;6.72;4.30;;;5.10;99.90;;;;;;5048857;28;20037;-69
2020/12/28 07:08:11;;;;;;;5.07;3.28;;;5.10;99.90;;;;;;5046180;28;20034;-70
2020/12/28 07:10:37;;;;;;;5.20;3.20;;;5.10;99.90;;;;;;5027316;28;20079;-70
2020/12/28 07:13:06;;;;;;;6.70;3.53;;;5.10;99.90;;;;;;5041328;28;20049;-69
2020/12/28 07:15:32;;;;;;;5.22;3.28;;;5.00;99.90;;;;;;5026168;28;20026;-70
2020/12/28 07:18:09;;;;;;;4.93;3.10;;;4.90;99.90;;;;;;5017605;28;20589;-70
2020/12/28 07:20:35;;;;;;;5.47;2.92;;;4.90;99.90;;;;;;5012962;28;20030;-70
2020/12/28 07:23:01;;;;;;;5.88;3.10;;;4.80;99.90;;;;;;5026779;28;20121;-69
2020/12/28 07:25:29;;;;;;;5.00;3.10;;;4.80;99.90;;;;;;5026467;28;20554;-70
2020/12/28 07:27:56;;;;;;;4.88;3.30;;;4.90;99.90;;;;;;5024711;28;20076;-70
2020/12/28 07:30:22;;;;;;;5.53;3.50;;;4.80;99.90;;;;;;5018235;28;20095;-70
2020/12/28 07:32:48;;;;;;;5.15;3.47;;;4.80;99.90;;;;;;5013724;28;20033;-70
2020/12/28 07:35:13;;;;;;;5.65;3.30;;;4.70;99.90;;;;;;5027260;28;20040;-69
2020/12/28 07:37:42;;;;;;;5.32;3.08;;;4.70;99.90;;;;;;5013235;28;20116;-70
2020/12/28 07:40:08;;;;;;;5.35;3.22;;;4.70;99.90;;;;;;5045612;28;20029;-70
2020/12/28 07:42:36;;;;;;;7.07;3.75;;;4.70;99.90;;;;;;5012452;28;20030;-70
2020/12/28 07:45:09;;;;;;;5.90;4.22;;;4.70;99.90;;;;;;5012730;28;20103;-69
2020/12/28 07:47:58;;;;;;;5.78;3.55;;;4.70;99.90;;;;;;5014901;28;20034;-69
2020/12/28 07:50:24;;;;;;;5.78;3.30;;;4.80;99.90;;;;;;5044864;28;20030;-70
2020/12/28 07:53:01;;;;;;;4.70;2.97;;;4.70;99.90;;;;;;5027287;28;20067;-69
2020/12/28 07:55:28;;;;;;;4.97;2.90;;;4.80;99.90;;;;;;5044430;28;20045;-69
2020/12/28 07:58:03;;;;;;;5.78;3.20;;;4.80;99.90;;;;;;5010826;28;20465;-70
2020/12/28 08:00:33;;;;;;;4.50;3.00;;;4.80;99.90;;;;;;5029087;28;20033;-69
2020/12/28 08:03:07;;;;;;;6.10;3.40;;;4.80;99.90;;;;;;5059174;28;20239;-70
2020/12/28 08:05:34;;;;;;;5.57;3.90;;;4.80;99.90;;;;;;5019288;28;20033;-69
2020/12/28 08:08:00;;;;;;;5.90;3.75;;;4.80;99.90;;;;;;5045502;28;20030;-70
2020/12/28 08:10:26;;;;;;;5.80;3.70;;;4.80;99.90;;;;;;5027443;28;20052;-70
2020/12/28 08:13:00;;;;;;;6.82;3.65;;;4.80;99.90;;;;;;5027155;28;20086;-70
2020/12/28 08:15:31;;;;;;;6.20;3.90;;;4.90;99.90;;;;;;5026735;28;20363;-70
2020/12/28 08:18:09;;;;;;;5.32;3.40;;;4.90;99.90;;;;;;5023220;28;20048;-70
2020/12/28 08:20:41;;;;;;;5.85;3.70;;;4.90;99.90;;;;;;5016215;28;20879;-70
2020/12/28 08:23:06;;;;;;;5.60;3.72;;;4.90;99.90;;;;;;5030384;28;20075;-69
2020/12/28 08:25:36;;;;;;;5.28;3.03;;;4.90;99.90;;;;;;5016346;28;20034;-70
2020/12/28 08:28:02;;;;;;;6.30;3.30;;;4.90;99.90;;;;;;5016150;28;20034;-70
2020/12/28 08:30:31;;;;;;;5.07;3.20;;;4.90;99.90;;;;;;5049387;28;20041;-70
2020/12/28 08:32:59;;;;;;;5.75;3.80;;;4.90;99.90;;;;;;5060927;28;20037;-70
2020/12/28 08:35:30;;;;;;;6.82;3.30;;;5.00;99.90;;;;;;5053682;28;20022;-70
2020/12/28 08:37:58;;;;;;;5.10;3.38;;;5.00;99.90;;;;;;5045911;28;20643;-69
2020/12/28 08:40:23;;;;;;;6.82;3.70;;;5.00;99.90;;;;;;5015794;28;20040;-69
2020/12/28 08:42:56;;;;;;;5.15;3.40;;;5.00;99.90;;;;;;5046980;28;20029;-69
2020/12/28 08:45:23;;;;;;;5.45;3.42;;;5.10;99.90;;;;;;5047281;28;20916;-69
2020/12/28 08:47:58;;;;;;;5.82;3.30;;;5.10;99.90;;;;;;5019481;28;20042;-70
2020/12/28 08:50:24;;;;;;;5.30;3.25;;;5.10;99.90;;;;;;5046422;28;20033;-70
2020/12/28 08:52:56;;;;;;;5.70;3.22;;;5.10;99.90;;;;;;5016699;28;20033;-70
2020/12/28 08:55:22;;;;;;;5.18;3.13;;;5.20;99.90;;;;;;5046581;28;20037;-70
2020/12/28 08:57:55;;;;;;;5.10;2.95;;;5.20;99.90;;;;;;5052054;28;20029;-70
2020/12/28 09:00:24;;;;;;;5.85;3.25;;;5.20;99.90;;;;;;5060632;28;20071;-71
2020/12/28 09:02:54;;;;;;;6.45;3.60;;;5.30;99.90;;;;;;5058363;28;20040;-71
2020/12/28 09:05:22;;;;;;;6.63;3.45;;;5.30;99.90;;;;;;5058767;28;20018;-70
2020/12/28 09:07:50;;;;;;;5.57;3.45;;;5.30;99.90;;;;;;5023050;28;20049;-70
2020/12/28 09:10:18;;;;;;;5.75;3.40;;;5.40;99.90;;;;;;5029069;28;20121;-70
2020/12/28 09:12:44;;;;;;;7.07;3.30;;;5.40;99.90;;;;;;5017367;28;20046;-71
2020/12/28 09:15:10;;;;;;;6.55;3.95;;;5.40;99.90;;;;;;5049495;28;20050;-71
2020/12/28 09:17:38;;;;;;;7.63;4.15;;;5.50;99.90;;;;;;5046708;28;20044;-69
2020/12/28 09:20:05;;;;;;;5.20;3.42;;;5.50;99.90;;;;;;5030861;28;20107;-69
2020/12/28 09:22:31;;;;;;;6.35;3.70;;;5.50;99.90;;;;;;5023712;28;20085;-69
2020/12/28 09:24:56;;;;;;;6.82;3.55;;;5.50;99.90;;;;;;5059672;28;20478;-69
2020/12/28 09:27:24;;;;;;;6.60;3.97;;;5.50;99.90;;;;;;5027318;28;20033;-69
2020/12/28 09:29:50;;;;;;;6.28;3.60;;;5.50;99.90;;;;;;5027482;28;20032;-69
2020/12/28 09:32:18;;;;;;;7.80;4.50;;;5.60;99.90;;;;;;5027014;28;20038;-70
2020/12/28 09:34:46;;;;;;;7.15;4.00;;;5.60;99.90;;;;;;5042027;28;20025;-69
2020/12/28 09:37:12;;;;;;;6.38;3.67;;;5.60;99.90;;;;;;5024437;28;20045;-69
2020/12/28 09:39:37;;;;;;;7.95;4.63;;;5.70;99.90;;;;;;5011677;28;20418;-69
2020/12/28 09:42:08;;;;;;;6.85;4.38;;;5.70;99.90;;;;;;5026774;28;20025;-69
2020/12/28 09:44:34;;;;;;;8.35;4.15;;;5.70;99.90;;;;;;5058762;28;20033;-69
2020/12/28 09:46:59;;;;;;;7.78;4.00;;;5.70;99.90;;;;;;5026871;28;20435;-69
2020/12/28 09:49:25;;;;;;;8.40;4.28;;;5.70;99.90;;;;;;5025007;28;20040;-69
2020/12/28 09:51:54;;;;;;;8.63;4.05;;;5.70;99.90;;;;;;5060765;28;20045;-69
2020/12/28 09:54:20;;;;;;;7.07;4.32;;;5.80;99.90;;;;;;5026742;28;20034;-69
2020/12/28 09:56:46;;;;;;;5.95;3.67;;;5.80;99.90;;;;;;5058378;28;20022;-69
2020/12/28 09:59:12;;;;;;;7.05;4.40;;;5.80;99.90;;;;;;5025867;28;20025;-70
2020/12/28 10:01:37;;;;;;;7.00;4.03;;;5.80;99.90;;;;;;5026442;28;20018;-69
2020/12/28 10:04:07;;;;;;;7.65;4.60;;;5.80;99.90;;;;;;5025542;28;20033;-69
2020/12/28 10:06:36;;;;;;;6.60;3.85;;;5.80;99.90;;;;;;5024999;28;20167;-69
2020/12/28 10:09:08;;;;;;;6.63;4.18;;;5.80;99.90;;;;;;5024937;28;20083;-69
2020/12/28 10:11:33;;;;;;;8.38;4.70;;;5.90;99.90;;;;;;5026170;28;20029;-69
2020/12/28 10:13:59;;;;;;;9.07;5.20;;;5.80;99.90;;;;;;5009963;28;20073;-69
2020/12/28 10:16:26;;;;;;;8.75;4.72;;;5.90;99.90;;;;;;5024283;28;20033;-69
2020/12/28 10:18:55;;;;;;;6.50;3.95;;;5.90;99.90;;;;;;5024816;28;20033;-69
2020/12/28 10:21:22;;;;;;;8.10;5.13;;;5.90;99.90;;;;;;5041546;28;20048;-69
2020/12/28 10:23:52;;;;;;;6.75;4.47;;;5.90;99.90;;;;;;5009895;28;20057;-69
2020/12/28 10:26:27;;;;;;;8.18;5.15;;;5.90;99.90;;;;;;5025227;28;20029;-69
2020/12/28 10:28:56;;;;;;;8.30;5.50;;;5.90;99.90;;;;;;5026599;28;20055;-69
2020/12/28 10:31:22;;;;;;;10.05;5.00;;;5.90;99.90;;;;;;5025453;28;20037;-69
2020/12/28 10:33:50;;;;;;;8.82;5.30;;;5.90;99.90;;;;;;5057477;28;20086;-70
2020/12/28 10:36:24;;;;;;;8.07;4.95;;;5.90;99.90;;;;;;5025423;28;20107;-70
2020/12/28 10:38:52;;;;;;;7.00;4.80;;;5.80;99.90;;;;;;5024506;28;20018;-70
2020/12/28 10:41:28;;;;;;;9.02;5.30;;;5.90;99.90;;;;;;5041384;28;20053;-69
2020/12/28 10:43:54;;;;;;;10.45;6.78;;;5.90;99.90;;;;;;5059386;28;20079;-69
2020/12/28 10:46:22;;;;;;;8.25;5.82;;;5.90;99.90;;;;;;5025767;28;20384;-70
2020/12/28 10:48:48;;;;;;;8.90;5.78;;;5.90;99.90;;;;;;5058306;28;20030;-70
2020/12/28 10:51:14;;;;;;;10.70;6.80;;;6.00;99.90;;;;;;5056155;28;20095;-69
2020/12/28 10:53:39;;;;;;;9.65;6.32;;;6.00;99.90;;;;;;5059454;28;20033;-69
2020/12/28 10:56:07;;;;;;;9.07;6.10;;;6.00;99.90;;;;;;5026804;28;20490;-70
2020/12/28 10:58:35;;;;;;;8.93;6.15;;;6.00;99.90;;;;;;5023058;28;20036;-69
2020/12/28 11:01:04;;;;;;;9.32;6.38;;;6.00;99.90;;;;;;5010883;28;20124;-70
2020/12/28 11:03:30;;;;;;;9.07;6.68;;;6.00;99.90;;;;;;5026634;28;20553;-70
2020/12/28 11:05:55;;;;;;;9.45;6.10;;;6.00;99.90;;;;;;5023845;28;20033;-70
2020/12/28 11:08:21;;;;;;;10.82;7.90;;;6.00;99.90;;;;;;5024805;28;20458;-69
2020/12/28 11:10:47;;;;;;;8.02;6.40;;;6.10;99.90;;;;;;5025757;28;20041;-69
2020/12/28 11:13:12;;;;;;;8.73;6.50;;;6.10;99.90;;;;;;5026110;28;20044;-69
2020/12/28 11:15:38;;;;;;;10.55;6.78;;;6.10;99.90;;;;;;5056678;28;20123;-70
2020/12/28 11:18:05;;;;;;;10.82;8.23;;;6.10;99.90;;;;;;5024166;28;20336;-69
2020/12/28 11:20:33;;;;;;;8.80;6.53;;;6.10;99.90;;;;;;5022379;28;20017;-70
2020/12/28 11:22:59;;;;;;;11.30;7.28;;;6.20;99.90;;;;;;5023835;28;20120;-69
2020/12/28 11:25:25;;;;;;;7.70;5.90;;;6.20;99.90;;;;;;5024790;28;20518;-69
2020/12/28 11:27:50;;;;;;;9.68;6.70;;;6.10;99.90;;;;;;5025043;28;20114;-69
2020/12/28 11:30:16;;;;;;;8.63;6.43;;;6.10;99.90;;;;;;5024784;28;20112;-69
2020/12/28 11:32:42;;;;;;;10.45;6.13;;;6.10;99.90;;;;;;5025938;28;20037;-69
2020/12/28 11:35:07;;;;;;;8.90;6.13;;;6.20;99.90;;;;;;5057246;28;20025;-69
2020/12/28 11:37:38;;;;;;;8.95;6.15;;;6.20;99.90;;;;;;5039009;28;20029;-70
2020/12/28 11:40:04;;;;;;;8.70;5.95;;;6.30;99.90;;;;;;5023989;28;20450;-69
2020/12/28 11:42:30;;;;;;;7.75;5.80;;;6.20;99.90;;;;;;5023881;28;20041;-70
2020/12/28 11:44:56;;;;;;;6.80;5.07;;;6.30;99.90;;;;;;5037293;28;20030;-69
2020/12/28 11:47:22;;;;;;;8.10;5.85;;;6.30;99.90;;;;;;5025014;28;20490;-69
2020/12/28 11:49:48;;;;;;;9.75;5.90;;;6.30;99.90;;;;;;5028125;28;20025;-70
2020/12/28 11:52:15;;;;;;;7.70;5.65;;;6.20;99.90;;;;;;5026534;28;20117;-70
2020/12/28 11:54:43;;;;;;;8.27;5.60;;;6.30;99.90;;;;;;5059330;28;20092;-70
2020/12/28 11:57:11;;;;;;;6.57;4.47;;;6.30;99.90;;;;;;5025650;28;20029;-69
2020/12/28 11:59:39;;;;;;;6.65;4.72;;;6.30;99.90;;;;;;5025426;28;20414;-70
2020/12/28 12:02:07;;;;;;;11.32;5.32;;;6.30;99.90;;;;;;5026773;28;20162;-69
2020/12/28 12:04:51;;;;;;;9.52;6.20;;;6.40;99.90;;;;;;5024532;28;20629;-70
2020/12/28 12:07:26;;;;;;;11.38;7.22;;;6.40;99.90;;;;;;5029392;28;20036;-70
2020/12/28 12:09:51;;;;;;;8.55;6.07;;;6.30;99.90;;;;;;5028567;28;20063;-69
2020/12/28 12:12:20;;;;;;;9.52;6.53;;;6.30;99.90;;;;;;5060493;28;20463;-69
2020/12/28 12:14:48;;;;;;;10.32;7.18;;;6.30;99.90;;;;;;5030369;28;20108;-69
2020/12/28 12:17:15;;;;;;;11.77;9.00;;;6.30;99.90;;;;;;5028644;28;20170;-69
2020/12/28 12:19:40;;;;;;;10.00;7.65;;;6.30;99.90;;;;;;5026909;28;20026;-69
2020/12/28 12:22:06;;;;;;;11.32;8.77;;;6.20;99.90;;;;;;5027341;28;20017;-69
2020/12/28 12:24:34;;;;;;;11.23;7.82;;;6.30;99.90;;;;;;5028585;28;20133;-72
2020/12/28 12:27:00;;;;;;;10.35;7.57;;;6.20;99.90;;;;;;5059484;28;20021;-70
2020/12/28 12:29:25;;;;;;;8.82;6.78;;;6.20;99.90;;;;;;5061849;28;20087;-69
2020/12/28 12:31:55;;;;;;;10.30;8.10;;;6.20;99.90;;;;;;5027058;28;20022;-69
2020/12/28 12:34:26;;;;;;;9.00;7.22;;;6.20;99.90;;;;;;5059812;28;20040;-69
2020/12/28 12:36:52;;;;;;;11.65;8.73;;;6.20;99.90;;;;;;5027001;28;20028;-69
2020/12/28 12:39:18;;;;;;;9.80;7.88;;;6.20;99.90;;;;;;5026696;28;20029;-69
2020/12/28 12:41:49;;;;;;;12.52;8.50;;;6.20;99.90;;;;;;5027721;28;20022;-69
2020/12/28 12:44:16;;;;;;;10.98;8.45;;;6.20;99.90;;;;;;5027690;28;20029;-69
2020/12/28 12:46:44;;;;;;;11.05;8.32;;;6.10;99.90;;;;;;5025608;28;20029;-69
2020/12/28 12:49:10;;;;;;;10.80;7.80;;;6.20;99.90;;;;;;5027014;28;20087;-69
2020/12/28 12:51:36;;;;;;;9.20;7.38;;;6.20;99.90;;;;;;5058062;28;20431;-69
2020/12/28 12:54:06;;;;;;;9.45;7.43;;;6.20;99.90;;;;;;5026662;28;20041;-70
2020/12/28 12:56:32;;;;;;;10.20;7.40;;;6.10;99.90;;;;;;5042181;28;20027;-70
2020/12/28 12:59:00;;;;;;;10.00;6.70;;;6.20;99.90;;;;;;5028697;28;20112;-70